createdAt,value
2019-05-18T00:01:01.313Z,98430.00
2019-05-18T00:03:06.870Z,98435.00
2019-05-18T00:05:12.261Z,98438.00
2019-05-18T00:07:17.875Z,98438.00
2019-05-18T00:09:23.438Z,98441.00
2019-05-18T00:11:28.550Z,98438.00
2019-05-18T00:13:33.743Z,98447.00
2019-05-18T00:15:39.548Z,98440.00
2019-05-18T00:17:45.701Z,98444.00
2019-05-18T00:19:51.391Z,98439.00
2019-05-18T00:21:56.869Z,98442.00
2019-05-18T00:24:02.802Z,98441.00
2019-05-18T00:26:07.878Z,98433.00
2019-05-18T00:28:13.204Z,98436.00
2019-05-18T00:30:19.026Z,98441.00
2019-05-18T00:32:27.229Z,98431.00
2019-05-18T00:34:32.969Z,98434.00
2019-05-18T00:36:38.428Z,98437.00
2019-05-18T00:38:43.374Z,98423.00
2019-05-18T00:40:48.747Z,98423.00
2019-05-18T00:42:54.376Z,98428.00
2019-05-18T00:44:59.689Z,98426.00
2019-05-18T00:47:04.854Z,98422.00
2019-05-18T00:49:09.951Z,98419.00
2019-05-18T00:51:15.041Z,98427.00
2019-05-18T00:53:20.186Z,98420.00
2019-05-18T00:55:25.628Z,98426.00
2019-05-18T00:57:30.806Z,98426.00
2019-05-18T00:59:35.980Z,98426.00
2019-05-18T01:01:43.355Z,98421.00
2019-05-18T01:03:49.488Z,98434.00
2019-05-18T01:05:56.484Z,98419.00
2019-05-18T01:08:03.357Z,98413.00
2019-05-18T01:10:10.389Z,98424.00
2019-05-18T01:12:15.592Z,98422.00
2019-05-18T01:14:21.125Z,98425.00
2019-05-18T01:16:26.310Z,98425.00
2019-05-18T01:18:32.108Z,98423.00
2019-05-18T01:20:37.606Z,98406.00
2019-05-18T01:22:42.770Z,98410.00
2019-05-18T01:24:48.525Z,98413.00
2019-05-18T01:26:53.614Z,98414.00
2019-05-18T01:29:05.073Z,98409.00
2019-05-18T01:31:10.237Z,98415.00
2019-05-18T01:33:15.687Z,98407.00
2019-05-18T01:35:23.110Z,98397.00
2019-05-18T01:37:28.744Z,98404.00
2019-05-18T01:39:34.102Z,98408.00
2019-05-18T01:41:39.810Z,98406.00
2019-05-18T01:43:45.538Z,98410.00
2019-05-18T01:45:50.995Z,98409.00
2019-05-18T01:47:56.093Z,98413.00
2019-05-18T01:50:01.800Z,98410.00
2019-05-18T01:52:07.281Z,98405.00
2019-05-18T01:54:12.751Z,98398.00
2019-05-18T01:56:17.933Z,98401.00
2019-05-18T01:58:23.070Z,98408.00
2019-05-18T02:00:28.736Z,98400.00
2019-05-18T02:02:34.770Z,98402.00
2019-05-18T02:04:40.560Z,98409.00
2019-05-18T02:06:45.723Z,98405.00
2019-05-18T02:08:51.133Z,98398.00
2019-05-18T02:10:56.520Z,98407.00
2019-05-18T02:13:01.851Z,98406.00
2019-05-18T02:15:08.127Z,98409.00
2019-05-18T02:17:14.007Z,98392.00
2019-05-18T02:19:19.101Z,98406.00
2019-05-18T02:21:24.435Z,98406.00
2019-05-18T02:23:29.602Z,98410.00
2019-05-18T02:25:35.162Z,98400.00
2019-05-18T02:27:40.596Z,98402.00
2019-05-18T02:29:45.694Z,98397.00
2019-05-18T02:31:50.840Z,98407.00
2019-05-18T02:33:55.944Z,98401.00
2019-05-18T02:36:01.340Z,98399.00
2019-05-18T02:38:16.430Z,98396.00
2019-05-18T02:40:21.691Z,98394.00
2019-05-18T02:42:30.548Z,98394.00
2019-05-18T02:44:33.975Z,98387.00
2019-05-18T02:46:39.415Z,98385.00
2019-05-18T02:48:49.703Z,98389.00
2019-05-18T02:50:51.395Z,98378.00
2019-05-18T02:52:56.693Z,98379.00
2019-05-18T02:55:02.137Z,98374.00
2019-05-18T02:57:07.258Z,98377.00
2019-05-18T02:59:12.395Z,98378.00
2019-05-18T03:01:17.572Z,98390.00
2019-05-18T03:03:22.655Z,98385.00
2019-05-18T03:05:28.124Z,98386.00
2019-05-18T03:07:33.606Z,98390.00
2019-05-18T03:09:38.831Z,98379.00
2019-05-18T03:11:44.015Z,98383.00
2019-05-18T03:13:49.623Z,98381.00
2019-05-18T03:15:55.289Z,98387.00
2019-05-18T03:18:00.388Z,98385.00
2019-05-18T03:20:06.206Z,98381.00
2019-05-18T03:22:11.308Z,98373.00
2019-05-18T03:24:17.087Z,98372.00
2019-05-18T03:26:22.187Z,98374.00
2019-05-18T03:28:27.306Z,98362.00
2019-05-18T03:30:32.714Z,98377.00
2019-05-18T03:32:37.675Z,98378.00
2019-05-18T03:34:43.162Z,98375.00
2019-05-18T03:36:48.792Z,98386.00
2019-05-18T03:38:54.465Z,98377.00
2019-05-18T03:41:00.193Z,98385.00
2019-05-18T03:43:05.281Z,98372.00
2019-05-18T03:45:10.748Z,98377.00
2019-05-18T03:47:16.556Z,98385.00
2019-05-18T03:49:27.031Z,98383.00
2019-05-18T03:51:28.751Z,98385.00
2019-05-18T03:53:34.337Z,98382.00
2019-05-18T03:55:39.580Z,98381.00
2019-05-18T03:57:44.480Z,98380.00
2019-05-18T03:59:49.827Z,98380.00
2019-05-18T04:01:55.602Z,98381.00
2019-05-18T04:04:01.115Z,98375.00
2019-05-18T04:06:06.410Z,98374.00
2019-05-18T04:08:11.835Z,98376.00
2019-05-18T04:10:25.000Z,98374.00
2019-05-18T04:12:30.054Z,98377.00
2019-05-18T04:14:35.480Z,98369.00
2019-05-18T04:16:41.046Z,98374.00
2019-05-18T04:18:46.209Z,98367.00
2019-05-18T04:20:51.696Z,98374.00
2019-05-18T04:22:57.083Z,98372.00
2019-05-18T04:25:02.592Z,98372.00
2019-05-18T04:27:08.246Z,98378.00
2019-05-18T04:29:13.579Z,98379.00
2019-05-18T04:31:19.048Z,98378.00
2019-05-18T04:33:24.787Z,98377.00
2019-05-18T04:35:30.148Z,98382.00
2019-05-18T04:37:35.296Z,98379.00
2019-05-18T04:39:40.746Z,98382.00
2019-05-18T04:41:46.173Z,98384.00
2019-05-18T04:43:52.244Z,98382.00
2019-05-18T04:45:57.259Z,98384.00
2019-05-18T04:48:02.689Z,98390.00
2019-05-18T04:50:08.472Z,98390.00
2019-05-18T04:52:13.556Z,98387.00
2019-05-18T04:54:19.330Z,98375.00
2019-05-18T04:56:24.807Z,98389.00
2019-05-18T04:58:30.141Z,98395.00
2019-05-18T05:00:35.146Z,98398.00
2019-05-18T05:02:40.550Z,98397.00
2019-05-18T05:04:45.577Z,98393.00
2019-05-18T05:06:51.069Z,98389.00
2019-05-18T05:08:56.398Z,98393.00
2019-05-18T05:11:01.608Z,98392.00
2019-05-18T05:13:06.777Z,98395.00
2019-05-18T05:15:12.389Z,98395.00
2019-05-18T05:17:17.481Z,98393.00
2019-05-18T05:19:22.573Z,98396.00
2019-05-18T05:21:27.950Z,98383.00
2019-05-18T05:23:33.956Z,98383.00
2019-05-18T05:25:39.297Z,98383.00
2019-05-18T05:27:44.745Z,98378.00
2019-05-18T05:29:50.227Z,98381.00
2019-05-18T05:31:55.672Z,98381.00
2019-05-18T05:34:01.039Z,98379.00
2019-05-18T05:36:06.510Z,98383.00
2019-05-18T05:38:12.277Z,98380.00
2019-05-18T05:40:17.471Z,98381.00
2019-05-18T05:42:22.541Z,98377.00
2019-05-18T05:44:27.642Z,98375.00
2019-05-18T05:46:32.974Z,98382.00
2019-05-18T05:48:38.945Z,98391.00
2019-05-18T05:50:44.514Z,98380.00
2019-05-18T05:52:49.917Z,98375.00
2019-05-18T05:54:55.384Z,98387.00
2019-05-18T05:57:00.320Z,98383.00
2019-05-18T05:59:05.828Z,98384.00
2019-05-18T06:01:11.171Z,98383.00
2019-05-18T06:03:16.657Z,98386.00
2019-05-18T06:05:21.829Z,98384.00
2019-05-18T06:07:27.125Z,98384.00
2019-05-18T06:09:32.545Z,98383.00
2019-05-18T06:11:37.889Z,98388.00
2019-05-18T06:13:43.079Z,98388.00
2019-05-18T06:15:48.772Z,98389.00
2019-05-18T06:17:53.805Z,98390.00
2019-05-18T06:19:58.827Z,98393.00
2019-05-18T06:22:04.165Z,98384.00
2019-05-18T06:24:09.347Z,98388.00
2019-05-18T06:26:14.430Z,98387.00
2019-05-18T06:28:19.827Z,98387.00
2019-05-18T06:30:25.195Z,98386.00
2019-05-18T06:32:30.346Z,98381.00
2019-05-18T06:34:36.050Z,98382.00
2019-05-18T06:36:41.200Z,98385.00
2019-05-18T06:38:46.463Z,98378.00
2019-05-18T06:40:51.979Z,98387.00
2019-05-18T06:42:57.356Z,98383.00
2019-05-18T06:45:02.537Z,98378.00
2019-05-18T06:47:07.646Z,98386.00
2019-05-18T06:49:12.820Z,98381.00
2019-05-18T06:51:18.252Z,98379.00
2019-05-18T06:53:23.807Z,98376.00
2019-05-18T06:55:29.024Z,98376.00
2019-05-18T06:57:35.965Z,98377.00
2019-05-18T06:59:41.841Z,98381.00
2019-05-18T07:01:47.030Z,98367.00
2019-05-18T07:03:52.454Z,98372.00
2019-05-18T07:05:58.012Z,98374.00
2019-05-18T07:08:03.115Z,98366.00
2019-05-18T07:10:08.286Z,98378.00
2019-05-18T07:12:13.772Z,98369.00
2019-05-18T07:14:25.608Z,98365.00
2019-05-18T07:16:26.043Z,98380.00
2019-05-18T07:18:31.401Z,98380.00
2019-05-18T07:20:36.537Z,98373.00
2019-05-18T07:22:41.720Z,98372.00
2019-05-18T07:24:47.433Z,98371.00
2019-05-18T07:26:52.831Z,98366.00
2019-05-18T07:28:58.026Z,98368.00
2019-05-18T07:31:03.415Z,98373.00
2019-05-18T07:33:08.715Z,98374.00
2019-05-18T07:35:14.177Z,98367.00
2019-05-18T07:37:19.573Z,98374.00
2019-05-18T07:39:25.016Z,98369.00
2019-05-18T07:41:44.523Z,98362.00
2019-05-18T07:43:37.581Z,98364.00
2019-05-18T07:45:42.821Z,98365.00
2019-05-18T07:47:48.030Z,98368.00
2019-05-18T07:49:53.205Z,98367.00
2019-05-18T07:51:58.188Z,98370.00
2019-05-18T07:54:03.342Z,98371.00
2019-05-18T07:56:08.805Z,98378.00
2019-05-18T07:58:13.959Z,98371.00
2019-05-18T08:00:19.319Z,98379.00
2019-05-18T08:02:24.680Z,98382.00
2019-05-18T08:04:29.757Z,98390.00
2019-05-18T08:06:35.762Z,98383.00
2019-05-18T08:08:40.793Z,98395.00
2019-05-18T08:10:45.831Z,98384.00
2019-05-18T08:12:51.185Z,98383.00
2019-05-18T08:14:56.682Z,98386.00
2019-05-18T08:17:02.309Z,98374.00
2019-05-18T08:19:07.691Z,98378.00
2019-05-18T08:21:13.323Z,98379.00
2019-05-18T08:23:19.248Z,98385.00
2019-05-18T08:25:24.791Z,98389.00
2019-05-18T08:27:29.888Z,98388.00
2019-05-18T08:29:35.205Z,98381.00
2019-05-18T08:31:40.433Z,98388.00
2019-05-18T08:33:45.492Z,98385.00
2019-05-18T08:35:50.650Z,98383.00
2019-05-18T08:37:55.791Z,98393.00
2019-05-18T08:40:00.664Z,98393.00
2019-05-18T08:42:05.600Z,98391.00
2019-05-18T08:44:11.166Z,98385.00
2019-05-18T08:46:16.069Z,98386.00
2019-05-18T08:48:21.310Z,98383.00
2019-05-18T08:50:26.276Z,98389.00
2019-05-18T08:52:31.374Z,98393.00
2019-05-18T08:54:36.253Z,98395.00
2019-05-18T08:56:41.367Z,98394.00
2019-05-18T08:58:47.120Z,98394.00
2019-05-18T09:00:51.921Z,98393.00
2019-05-18T09:02:57.155Z,98401.00
2019-05-18T09:05:04.864Z,98386.00
2019-05-18T09:07:09.776Z,98390.00
2019-05-18T09:09:14.584Z,98393.00
2019-05-18T09:11:19.517Z,98393.00
2019-05-18T09:13:25.084Z,98390.00
2019-05-18T09:15:30.630Z,98392.00
2019-05-18T09:17:35.935Z,98397.00
2019-05-18T09:19:41.434Z,98392.00
2019-05-18T09:21:46.589Z,98396.00
2019-05-18T09:23:51.945Z,98399.00
2019-05-18T09:25:57.242Z,98396.00
2019-05-18T09:28:02.043Z,98405.00
2019-05-18T09:30:08.277Z,98400.00
2019-05-18T09:32:13.650Z,98398.00
2019-05-18T09:34:18.739Z,98387.00
2019-05-18T09:36:23.566Z,98391.00
2019-05-18T09:38:32.876Z,98395.00
2019-05-18T09:40:36.669Z,98392.00
2019-05-18T09:42:42.015Z,98398.00
2019-05-18T09:44:47.390Z,98391.00
2019-05-18T09:46:54.892Z,98392.00
2019-05-18T09:48:59.996Z,98394.00
2019-05-18T09:51:05.114Z,98397.00
2019-05-18T09:53:10.426Z,98395.00
2019-05-18T09:55:18.944Z,98400.00
2019-05-18T09:57:24.745Z,98392.00
2019-05-18T09:59:30.923Z,98391.00
2019-05-18T10:01:36.397Z,98397.00
2019-05-18T10:03:41.633Z,98395.00
2019-05-18T10:05:46.939Z,98402.00
2019-05-18T10:07:52.449Z,98387.00
2019-05-18T10:09:58.040Z,98390.00
2019-05-18T10:12:03.129Z,98388.00
2019-05-18T10:14:08.284Z,98395.00
2019-05-18T10:16:13.639Z,98395.00
2019-05-18T10:18:21.753Z,98394.00
2019-05-18T10:20:25.865Z,98394.00
2019-05-18T10:22:30.943Z,98391.00
2019-05-18T10:24:36.438Z,98383.00
2019-05-18T10:26:41.855Z,98392.00
2019-05-18T10:28:47.201Z,98390.00
2019-05-18T10:30:52.482Z,98388.00
2019-05-18T10:32:57.755Z,98388.00
2019-05-18T10:35:03.462Z,98395.00
2019-05-18T10:37:08.555Z,98390.00
2019-05-18T10:39:13.587Z,98385.00
2019-05-18T10:41:18.618Z,98394.00
2019-05-18T10:43:23.848Z,98399.00
2019-05-18T10:45:29.312Z,98393.00
2019-05-18T10:47:34.693Z,98401.00
2019-05-18T10:49:40.081Z,98395.00
2019-05-18T10:51:45.819Z,98393.00
2019-05-18T10:53:50.770Z,98389.00
2019-05-18T10:55:56.717Z,98391.00
2019-05-18T10:58:02.091Z,98382.00
2019-05-18T11:00:07.953Z,98375.00
2019-05-18T11:02:13.611Z,98384.00
2019-05-18T11:04:19.017Z,98381.00
2019-05-18T11:06:24.426Z,98391.00
2019-05-18T11:08:29.600Z,98385.00
2019-05-18T11:10:34.767Z,98379.00
2019-05-18T11:12:40.606Z,98385.00
2019-05-18T11:14:45.975Z,98384.00
2019-05-18T11:16:51.768Z,98387.00
2019-05-18T11:18:56.934Z,98382.00
2019-05-18T11:21:02.464Z,98383.00
2019-05-18T11:23:08.078Z,98384.00
2019-05-18T11:25:14.768Z,98379.00
2019-05-18T11:27:19.937Z,98374.00
2019-05-18T11:29:25.218Z,98382.00
2019-05-18T11:31:30.425Z,98381.00
2019-05-18T11:33:36.134Z,98379.00
2019-05-18T11:35:41.299Z,98376.00
2019-05-18T11:37:46.778Z,98381.00
2019-05-18T11:39:51.962Z,98385.00
2019-05-18T11:41:57.067Z,98385.00
2019-05-18T11:44:02.238Z,98383.00
2019-05-18T11:46:10.744Z,98382.00
2019-05-18T11:48:15.928Z,98379.00
2019-05-18T11:50:22.094Z,98377.00
2019-05-18T11:52:27.553Z,98372.00
2019-05-18T11:54:33.021Z,98378.00
2019-05-18T11:56:38.103Z,98374.00
2019-05-18T11:58:43.154Z,98380.00
2019-05-18T12:00:48.388Z,98378.00
2019-05-18T12:02:53.996Z,98371.00
2019-05-18T12:04:59.635Z,98371.00
2019-05-18T12:07:04.721Z,98367.00
2019-05-18T12:09:10.505Z,98365.00
2019-05-18T12:11:15.584Z,98362.00
2019-05-18T12:13:22.492Z,98368.00
2019-05-18T12:15:27.685Z,98371.00
2019-05-18T12:17:32.780Z,98364.00
2019-05-18T12:19:37.929Z,98359.00
2019-05-18T12:21:43.427Z,98361.00
2019-05-18T12:23:48.536Z,98369.00
2019-05-18T12:25:53.983Z,98354.00
2019-05-18T12:28:00.197Z,98362.00
2019-05-18T12:30:05.922Z,98363.00
2019-05-18T12:32:14.934Z,98375.00
2019-05-18T12:34:19.974Z,98373.00
2019-05-18T12:36:25.302Z,98373.00
2019-05-18T12:38:30.411Z,98370.00
2019-05-18T12:40:35.842Z,98374.00
2019-05-18T12:42:40.982Z,98368.00
2019-05-18T12:44:46.723Z,98365.00
2019-05-18T12:46:51.842Z,98367.00
2019-05-18T12:48:56.944Z,98370.00
2019-05-18T12:51:02.203Z,98371.00
2019-05-18T12:53:07.554Z,98365.00
2019-05-18T12:55:14.736Z,98368.00
2019-05-18T12:57:19.923Z,98370.00
2019-05-18T12:59:25.534Z,98368.00
2019-05-18T13:01:30.820Z,98363.00
2019-05-18T13:03:36.160Z,98361.00
2019-05-18T13:05:41.474Z,98362.00
2019-05-18T13:07:46.984Z,98359.00
2019-05-18T13:09:52.176Z,98362.00
2019-05-18T13:11:57.704Z,98365.00
2019-05-18T13:14:03.192Z,98369.00
2019-05-18T13:16:08.366Z,98369.00
2019-05-18T13:18:13.739Z,98367.00
2019-05-18T13:20:19.241Z,98359.00
2019-05-18T13:22:24.984Z,98359.00
2019-05-18T13:24:44.299Z,98359.00
2019-05-18T13:26:37.703Z,98351.00
2019-05-18T13:28:43.228Z,98354.00
2019-05-18T13:30:48.608Z,98355.00
2019-05-18T13:32:53.798Z,98351.00
2019-05-18T13:34:58.962Z,98351.00
2019-05-18T13:37:04.121Z,98350.00
2019-05-18T13:39:09.638Z,98347.00
2019-05-18T13:41:14.893Z,98352.00
2019-05-18T13:43:20.974Z,98347.00
2019-05-18T13:45:26.219Z,98348.00
2019-05-18T13:47:31.864Z,98339.00
2019-05-18T13:49:37.487Z,98345.00
2019-05-18T13:51:42.583Z,98344.00
2019-05-18T13:53:48.091Z,98344.00
2019-05-18T13:55:53.803Z,98349.00
2019-05-18T13:57:59.731Z,98351.00
2019-05-18T14:00:05.456Z,98351.00
2019-05-18T14:02:11.352Z,98349.00
2019-05-18T14:04:16.631Z,98351.00
2019-05-18T14:06:22.034Z,98350.00
2019-05-18T14:08:27.161Z,98344.00
2019-05-18T14:10:32.279Z,98351.00
2019-05-18T14:12:37.535Z,98353.00
2019-05-18T14:14:42.883Z,98354.00
2019-05-18T14:16:48.272Z,98354.00
2019-05-18T14:18:53.359Z,98350.00
2019-05-18T14:20:58.537Z,98353.00
2019-05-18T14:23:03.711Z,98357.00
2019-05-18T14:25:18.846Z,98348.00
2019-05-18T14:27:16.301Z,98351.00
2019-05-18T14:29:21.819Z,98350.00
2019-05-18T14:31:27.484Z,98346.00
2019-05-18T14:33:33.045Z,98351.00
2019-05-18T14:35:38.136Z,98341.00
2019-05-18T14:37:43.262Z,98349.00
2019-05-18T14:39:48.221Z,98349.00
2019-05-18T14:41:53.740Z,98335.00
2019-05-18T14:43:59.094Z,98331.00
2019-05-18T14:46:04.957Z,98339.00
2019-05-18T14:48:10.382Z,98335.00
2019-05-18T14:50:17.744Z,98341.00
2019-05-18T14:52:23.189Z,98345.00
2019-05-18T14:54:28.145Z,98341.00
2019-05-18T14:56:33.481Z,98346.00
2019-05-18T14:58:38.666Z,98357.00
2019-05-18T15:00:43.832Z,98345.00
2019-05-18T15:02:49.663Z,98343.00
2019-05-18T15:04:56.969Z,98349.00
2019-05-18T15:07:01.922Z,98353.00
2019-05-18T15:09:08.316Z,98343.00
2019-05-18T15:11:13.672Z,98350.00
2019-05-18T15:13:18.877Z,98354.00
2019-05-18T15:15:24.730Z,98361.00
2019-05-18T15:17:29.871Z,98360.00
2019-05-18T15:19:35.003Z,98361.00
2019-05-18T15:21:40.872Z,98357.00
2019-05-18T15:23:46.541Z,98359.00
2019-05-18T15:25:52.295Z,98370.00
2019-05-18T15:27:58.076Z,98374.00
2019-05-18T15:30:03.314Z,98383.00
2019-05-18T15:32:08.428Z,98392.00
2019-05-18T15:34:14.463Z,98400.00
2019-05-18T15:36:19.924Z,98401.00
2019-05-18T15:38:25.342Z,98413.00
2019-05-18T15:40:30.738Z,98411.00
2019-05-18T15:42:36.143Z,98429.00
2019-05-18T15:44:41.903Z,98438.00
2019-05-18T15:46:47.097Z,98443.00
2019-05-18T15:48:52.795Z,98448.00
2019-05-18T15:50:59.333Z,98449.00
2019-05-18T15:53:04.971Z,98451.00
2019-05-18T15:55:10.803Z,98446.00
2019-05-18T15:57:16.150Z,98447.00
2019-05-18T15:59:21.611Z,98454.00
2019-05-18T16:01:26.751Z,98454.00
2019-05-18T16:03:31.955Z,98459.00
2019-05-18T16:05:37.154Z,98452.00
2019-05-18T16:07:42.597Z,98441.00
2019-05-18T16:09:47.974Z,98431.00
2019-05-18T16:11:53.988Z,98421.00
2019-05-18T16:13:59.392Z,98429.00
2019-05-18T16:16:04.718Z,98417.00
2019-05-18T16:18:10.277Z,98415.00
2019-05-18T16:20:16.319Z,98411.00
2019-05-18T16:22:21.569Z,98422.00
2019-05-18T16:24:26.915Z,98422.00
2019-05-18T16:26:32.707Z,98424.00
2019-05-18T16:28:38.541Z,98415.00
2019-05-18T16:30:44.366Z,98429.00
2019-05-18T16:32:50.249Z,98419.00
2019-05-18T16:34:55.913Z,98412.00
2019-05-18T16:37:01.082Z,98412.00
2019-05-18T16:39:08.426Z,98407.00
2019-05-18T16:41:13.897Z,98405.00
2019-05-18T16:43:19.374Z,98404.00
2019-05-18T16:45:24.818Z,98412.00
2019-05-18T16:47:30.471Z,98403.00
2019-05-18T16:49:35.485Z,98410.00
2019-05-18T16:51:40.893Z,98406.00
2019-05-18T16:53:50.056Z,98404.00
2019-05-18T16:55:54.209Z,98408.00
2019-05-18T16:57:59.158Z,98401.00
2019-05-18T17:00:05.180Z,98410.00
2019-05-18T17:02:10.715Z,98402.00
2019-05-18T17:04:16.158Z,98401.00
2019-05-18T17:06:21.343Z,98393.00
2019-05-18T17:08:26.838Z,98391.00
2019-05-18T17:10:32.447Z,98397.00
2019-05-18T17:12:38.340Z,98400.00
2019-05-18T17:14:43.625Z,98383.00
2019-05-18T17:16:48.805Z,98395.00
2019-05-18T17:18:54.139Z,98392.00
2019-05-18T17:20:59.290Z,98388.00
2019-05-18T17:23:04.710Z,98396.00
2019-05-18T17:25:10.753Z,98398.00
2019-05-18T17:27:16.498Z,98401.00
2019-05-18T17:29:22.279Z,98401.00
2019-05-18T17:31:27.412Z,98409.00
2019-05-18T17:33:33.213Z,98402.00
2019-05-18T17:35:38.459Z,98402.00
2019-05-18T17:37:43.527Z,98394.00
2019-05-18T17:39:48.584Z,98400.00
2019-05-18T17:41:53.876Z,98399.00
2019-05-18T17:43:59.370Z,98398.00
2019-05-18T17:46:04.803Z,98398.00
2019-05-18T17:48:09.891Z,98396.00
2019-05-18T17:50:16.317Z,98403.00
2019-05-18T17:52:21.829Z,98399.00
2019-05-18T17:54:26.863Z,98398.00
2019-05-18T17:56:32.037Z,98398.00
2019-05-18T17:58:37.476Z,98396.00
2019-05-18T18:00:43.035Z,98400.00
2019-05-18T18:02:48.563Z,98406.00
2019-05-18T18:04:54.414Z,98395.00
2019-05-18T18:06:59.438Z,98404.00
2019-05-18T18:09:06.636Z,98404.00
2019-05-18T18:11:12.082Z,98400.00
2019-05-18T18:13:17.430Z,98413.00
2019-05-18T18:15:22.902Z,98404.00
2019-05-18T18:17:28.419Z,98404.00
2019-05-18T18:19:33.749Z,98415.00
2019-05-18T18:21:39.341Z,98413.00
2019-05-18T18:23:44.491Z,98408.00
2019-05-18T18:25:49.686Z,98397.00
2019-05-18T18:27:55.046Z,98406.00
2019-05-18T18:30:00.362Z,98412.00
2019-05-18T18:32:05.533Z,98408.00
2019-05-18T18:34:10.658Z,98409.00
2019-05-18T18:36:15.682Z,98411.00
2019-05-18T18:38:20.960Z,98411.00
2019-05-18T18:40:25.949Z,98414.00
2019-05-18T18:42:32.110Z,98410.00
2019-05-18T18:44:37.748Z,98408.00
2019-05-18T18:46:43.193Z,98420.00
2019-05-18T18:48:49.610Z,98424.00
2019-05-18T18:50:55.333Z,98415.00
2019-05-18T18:53:00.785Z,98416.00
2019-05-18T18:55:06.153Z,98418.00
2019-05-18T18:57:11.605Z,98425.00
2019-05-18T18:59:17.075Z,98420.00
2019-05-18T19:01:22.348Z,98422.00
2019-05-18T19:03:27.471Z,98414.00
2019-05-18T19:05:32.760Z,98410.00
2019-05-18T19:07:38.155Z,98426.00
2019-05-18T19:09:43.317Z,98417.00
2019-05-18T19:11:49.217Z,98421.00
2019-05-18T19:13:54.690Z,98419.00
2019-05-18T19:15:59.866Z,98429.00
2019-05-18T19:18:05.415Z,98431.00
2019-05-18T19:20:11.122Z,98436.00
2019-05-18T19:22:16.216Z,98441.00
2019-05-18T19:24:21.398Z,98453.00
2019-05-18T19:26:26.506Z,98454.00
2019-05-18T19:28:32.282Z,98467.00
2019-05-18T19:30:37.460Z,98468.00
2019-05-18T19:32:42.916Z,98462.00
2019-05-18T19:34:48.326Z,98462.00
2019-05-18T19:36:53.885Z,98459.00
2019-05-18T19:38:59.296Z,98471.00
2019-05-18T19:41:05.152Z,98474.00
2019-05-18T19:43:10.457Z,98463.00
2019-05-18T19:45:16.002Z,98471.00
2019-05-18T19:47:22.120Z,98466.00
2019-05-18T19:49:27.335Z,98466.00
2019-05-18T19:51:34.194Z,98476.00
2019-05-18T19:53:39.958Z,98478.00
2019-05-18T19:55:45.618Z,98479.00
2019-05-18T19:57:51.542Z,98477.00
2019-05-18T19:59:56.998Z,98483.00
2019-05-18T20:02:02.033Z,98487.00
2019-05-18T20:04:07.129Z,98486.00
2019-05-18T20:06:13.064Z,98487.00
2019-05-18T20:08:18.479Z,98489.00
2019-05-18T20:10:24.045Z,98497.00
2019-05-18T20:12:29.138Z,98493.00
2019-05-18T20:14:34.482Z,98490.00
2019-05-18T20:16:39.625Z,98492.00
2019-05-18T20:18:45.312Z,98487.00
2019-05-18T20:20:50.896Z,98493.00
2019-05-18T20:22:56.300Z,98494.00
2019-05-18T20:25:01.719Z,98491.00
2019-05-18T20:27:06.937Z,98491.00
2019-05-18T20:29:11.933Z,98490.00
2019-05-18T20:31:17.427Z,98487.00
2019-05-18T20:33:22.922Z,98493.00
2019-05-18T20:35:28.486Z,98498.00
2019-05-18T20:37:34.149Z,98493.00
2019-05-18T20:39:39.557Z,98490.00
2019-05-18T20:41:45.058Z,98483.00
2019-05-18T20:43:51.131Z,98494.00
2019-05-18T20:45:56.626Z,98494.00
2019-05-18T20:48:01.986Z,98500.00
2019-05-18T20:50:07.852Z,98493.00
2019-05-18T20:52:13.669Z,98497.00
2019-05-18T20:54:19.513Z,98489.00
2019-05-18T20:56:25.210Z,98490.00
2019-05-18T20:58:39.482Z,98486.00
2019-05-18T21:00:38.654Z,98479.00
2019-05-18T21:02:44.487Z,98476.00
2019-05-18T21:04:49.807Z,98472.00
2019-05-18T21:06:55.590Z,98468.00
2019-05-18T21:09:01.150Z,98466.00
2019-05-18T21:11:06.538Z,98463.00
2019-05-18T21:13:12.027Z,98457.00
2019-05-18T21:15:17.827Z,98464.00
2019-05-18T21:17:23.191Z,98462.00
2019-05-18T21:19:28.492Z,98468.00
2019-05-18T21:21:33.868Z,98467.00
2019-05-18T21:23:38.936Z,98464.00
2019-05-18T21:25:43.871Z,98466.00
2019-05-18T21:27:49.124Z,98466.00
2019-05-18T21:29:54.438Z,98467.00
2019-05-18T21:31:59.640Z,98470.00
2019-05-18T21:34:04.936Z,98476.00
2019-05-18T21:36:10.374Z,98471.00
2019-05-18T21:38:15.482Z,98474.00
2019-05-18T21:40:20.833Z,98474.00
2019-05-18T21:42:26.199Z,98466.00
2019-05-18T21:44:31.209Z,98467.00
2019-05-18T21:46:39.080Z,98468.00
2019-05-18T21:48:43.417Z,98470.00
2019-05-18T21:50:48.911Z,98466.00
2019-05-18T21:52:54.381Z,98477.00
2019-05-18T21:54:59.655Z,98469.00
2019-05-18T21:57:05.000Z,98471.00
2019-05-18T21:59:12.262Z,98466.00
2019-05-18T22:01:17.134Z,98468.00
2019-05-18T22:03:22.183Z,98459.00
2019-05-18T22:05:27.555Z,98463.00
2019-05-18T22:07:33.328Z,98468.00
2019-05-18T22:09:38.842Z,98459.00
2019-05-18T22:11:44.536Z,98462.00
2019-05-18T22:13:49.571Z,98459.00
2019-05-18T22:15:54.674Z,98460.00
2019-05-18T22:18:05.726Z,98458.00
2019-05-18T22:20:10.973Z,98463.00
2019-05-18T22:22:16.278Z,98467.00
2019-05-18T22:24:21.607Z,98458.00
2019-05-18T22:26:26.864Z,98465.00
2019-05-18T22:28:31.891Z,98466.00
2019-05-18T22:30:37.115Z,98458.00
2019-05-18T22:32:43.146Z,98457.00
2019-05-18T22:34:48.515Z,98458.00
2019-05-18T22:36:53.744Z,98461.00
2019-05-18T22:38:59.019Z,98463.00
2019-05-18T22:41:04.037Z,98469.00
2019-05-18T22:43:09.207Z,98467.00
2019-05-18T22:45:14.606Z,98457.00
2019-05-18T22:47:19.635Z,98466.00
2019-05-18T22:49:25.394Z,98463.00
2019-05-18T22:51:30.592Z,98459.00
2019-05-18T22:53:36.108Z,98458.00
2019-05-18T22:55:41.462Z,98459.00
2019-05-18T22:57:47.454Z,98459.00
2019-05-18T22:59:52.664Z,98466.00
2019-05-18T23:01:58.476Z,98453.00
2019-05-18T23:04:04.066Z,98457.00
2019-05-18T23:06:09.214Z,98459.00
2019-05-18T23:08:14.225Z,98455.00
2019-05-18T23:10:19.705Z,98452.00
2019-05-18T23:12:24.650Z,98451.00
2019-05-18T23:14:30.216Z,98452.00
2019-05-18T23:16:35.889Z,98451.00
2019-05-18T23:18:55.983Z,98448.00
2019-05-18T23:20:48.346Z,98446.00
2019-05-18T23:22:53.439Z,98447.00
2019-05-18T23:24:58.753Z,98446.00
2019-05-18T23:27:03.901Z,98445.00
2019-05-18T23:29:09.350Z,98446.00
2019-05-18T23:31:14.761Z,98433.00
2019-05-18T23:33:19.868Z,98432.00
2019-05-18T23:35:25.229Z,98429.00
2019-05-18T23:37:30.330Z,98427.00
2019-05-18T23:39:35.338Z,98426.00
2019-05-18T23:41:40.812Z,98424.00
2019-05-18T23:43:46.450Z,98431.00
2019-05-18T23:45:51.580Z,98429.00
2019-05-18T23:47:59.421Z,98431.00
2019-05-18T23:50:03.534Z,98433.00
2019-05-18T23:52:09.005Z,98429.00
2019-05-18T23:54:14.543Z,98417.00
2019-05-18T23:56:20.085Z,98425.00
2019-05-18T23:58:25.601Z,98420.00
